TimeEDT,TemperatureF,Dew PointF,Humidity,Sea Level PressureIn,VisibilityMPH,Wind Direction,Wind SpeedMPH,Gust SpeedMPH,PrecipitationIn,Events,Conditions,WindDirDegrees,DateUTC
12:53 AM,41.0,28.9,62,30.07,10.0,North,12.7,23.0,N/A,,Overcast,360,2012-10-29 04:53:00
1:53 AM,41.0,28.9,62,30.06,10.0,North,11.5,23.0,N/A,,Overcast,350,2012-10-29 05:53:00
2:29 AM,39.2,30.2,70,30.04,10.0,North,12.7,21.9,0.00,Rain,Light Rain,350,2012-10-29 06:29:00
2:53 AM,39.0,30.0,70,30.05,10.0,North,18.4,27.6,0.00,Rain,Light Rain,350,2012-10-29 06:53:00
3:03 AM,39.2,30.2,70,30.04,10.0,North,17.3,25.3,0.00,Rain,Light Rain,360,2012-10-29 07:03:00
3:53 AM,37.9,30.0,73,30.05,10.0,North,12.7,25.3,0.00,Rain,Light Rain,350,2012-10-29 07:53:00
4:19 AM,37.4,30.2,75,30.03,10.0,North,18.4,25.3,0.00,Rain,Light Rain,360,2012-10-29 08:19:00
4:53 AM,37.0,32.0,82,30.05,9.0,North,15.0,21.9,0.01,Rain,Light Rain,350,2012-10-29 08:53:00
5:27 AM,37.4,32.0,81,30.02,10.0,NNW,12.7,21.9,0.01,Rain,Light Rain,340,2012-10-29 09:27:00
5:53 AM,37.0,32.0,82,30.04,10.0,NNW,15.0,21.9,0.01,Rain,Light Rain,340,2012-10-29 09:53:00
6:53 AM,37.0,30.9,79,30.04,10.0,North,13.8,23.0,0.01,,Overcast,350,2012-10-29 10:53:00
7:53 AM,37.9,30.0,73,30.04,10.0,NNW,15.0,29.9,0.00,Rain,Light Rain,340,2012-10-29 11:53:00
8:53 AM,37.0,30.9,79,30.03,10.0,NNW,12.7,24.2,0.00,Rain,Light Rain,340,2012-10-29 12:53:00
9:53 AM,37.9,30.0,73,30.03,10.0,NNW,15.0,24.2,0.00,Rain,Light Rain,340,2012-10-29 13:53:00
10:53 AM,39.0,30.0,70,30.02,10.0,NNW,12.7,27.6,0.00,,Overcast,340,2012-10-29 14:53:00
11:53 AM,39.9,30.0,68,30.01,10.0,NNW,17.3,26.5,N/A,,Overcast,330,2012-10-29 15:53:00
12:53 PM,41.0,30.9,67,29.98,10.0,NNW,17.3,29.9,0.00,Rain,Light Rain,340,2012-10-29 16:53:00
1:30 PM,41.0,30.2,65,29.95,10.0,NNW,23.0,32.2,0.00,Rain,Light Rain,340,2012-10-29 17:30:00
1:53 PM,42.1,30.9,65,29.97,10.0,NNW,20.7,28.8,0.00,,Overcast,330,2012-10-29 17:53:00
2:53 PM,42.1,30.9,65,29.95,10.0,NNW,16.1,33.4,0.00,,Overcast,330,2012-10-29 18:53:00
3:23 PM,42.8,30.2,61,29.91,10.0,NNW,19.6,31.1,N/A,,Overcast,340,2012-10-29 19:23:00
3:53 PM,42.1,30.0,62,29.92,10.0,NNW,17.3,33.4,N/A,,Overcast,340,2012-10-29 19:53:00
4:34 PM,42.8,30.2,61,29.90,10.0,NNW,18.4,31.1,N/A,,Overcast,340,2012-10-29 20:34:00
4:53 PM,42.1,30.0,62,29.91,10.0,NNW,21.9,32.2,N/A,,Overcast,340,2012-10-29 20:53:00
5:06 PM,42.8,30.2,61,29.89,10.0,NNW,18.4,35.7,N/A,,Overcast,340,2012-10-29 21:06:00
5:53 PM,42.1,28.9,60,29.89,10.0,NNW,19.6,36.8,N/A,,Overcast,340,2012-10-29 21:53:00
6:53 PM,42.1,28.0,58,29.86,10.0,NNW,21.9,34.5,0.00,,Overcast,340,2012-10-29 22:53:00
7:53 PM,43.0,24.1,47,29.84,10.0,NNW,17.3,31.1,N/A,,Overcast,340,2012-10-29 23:53:00
8:53 PM,43.0,23.0,45,29.81,10.0,NNW,18.4,33.4,N/A,,Overcast,340,2012-10-30 00:53:00
9:53 PM,42.1,24.1,49,29.78,10.0,NNW,26.5,36.8,N/A,,Overcast,340,2012-10-30 01:53:00
10:53 PM,41.0,25.0,53,29.75,10.0,NNW,31.1,40.3,0.00,Rain,Light Rain,340,2012-10-30 02:53:00
11:53 PM,39.9,25.0,55,29.71,10.0,NNW,25.3,33.4,0.00,Rain,Light Rain,340,2012-10-30 03:53:00